createdAt,value
2023-10-24T00:00:26.264Z,3.13
2023-10-24T00:02:53.353Z,2.95
2023-10-24T00:05:20.313Z,3.70
2023-10-24T00:07:47.968Z,2.33
2023-10-24T00:10:15.219Z,5.63
2023-10-24T00:12:42.540Z,1.67
2023-10-24T00:15:10.010Z,2.42
2023-10-24T00:17:37.067Z,5.10
2023-10-24T00:20:05.146Z,2.28
2023-10-24T00:22:32.268Z,4.60
2023-10-24T00:24:59.282Z,2.03
2023-10-24T00:27:26.255Z,3.20
2023-10-24T00:29:53.810Z,2.72
2023-10-24T00:32:21.206Z,2.88
2023-10-24T00:34:48.327Z,5.82
2023-10-24T00:37:15.449Z,2.38
2023-10-24T00:39:42.990Z,4.05
2023-10-24T00:42:09.949Z,6.35
2023-10-24T00:44:36.925Z,3.30
2023-10-24T00:47:04.332Z,4.00
2023-10-24T00:49:32.355Z,2.03
2023-10-24T00:52:00.286Z,2.25
2023-10-24T00:54:29.432Z,4.40
2023-10-24T00:56:57.368Z,3.63
2023-10-24T00:59:25.620Z,2.83
2023-10-24T01:01:53.827Z,4.95
2023-10-24T01:04:23.603Z,2.20
2023-10-24T01:06:50.654Z,2.42
2023-10-24T01:09:17.657Z,4.70
2023-10-24T01:11:44.789Z,7.82
2023-10-24T01:14:11.903Z,2.42
2023-10-24T01:16:46.097Z,2.78
2023-10-24T01:19:14.220Z,2.92
2023-10-24T01:21:48.862Z,2.60
2023-10-24T01:24:18.349Z,2.83
2023-10-24T01:26:46.004Z,3.95
2023-10-24T01:29:13.145Z,3.00
2023-10-24T01:31:40.760Z,5.10
2023-10-24T01:34:07.951Z,2.75
2023-10-24T01:36:34.941Z,2.08
2023-10-24T01:39:02.026Z,1.88
2023-10-24T01:41:29.012Z,2.10
2023-10-24T01:43:57.043Z,2.63
2023-10-24T01:46:24.221Z,2.35
2023-10-24T01:48:51.341Z,1.73
2023-10-24T01:51:19.061Z,4.25
2023-10-24T01:53:47.266Z,1.92
2023-10-24T01:56:14.767Z,1.58
2023-10-24T01:58:41.997Z,3.17
2023-10-24T02:01:09.371Z,2.40
2023-10-24T02:03:36.465Z,2.50
2023-10-24T02:06:04.345Z,1.80
2023-10-24T02:08:32.086Z,1.70
2023-10-24T02:10:59.051Z,2.22
2023-10-24T02:13:26.060Z,1.95
2023-10-24T02:15:55.216Z,2.83
2023-10-24T02:18:22.320Z,1.83
2023-10-24T02:20:50.835Z,2.50
2023-10-24T02:23:17.955Z,3.35
2023-10-24T02:25:45.020Z,1.92
2023-10-24T02:28:13.108Z,3.25
2023-10-24T02:30:40.205Z,3.08
2023-10-24T02:33:08.834Z,3.03
2023-10-24T02:35:41.167Z,3.40
2023-10-24T02:38:18.505Z,2.67
2023-10-24T02:40:54.298Z,2.55
2023-10-24T02:43:21.366Z,1.88
2023-10-24T02:45:48.353Z,2.30
2023-10-24T02:48:15.329Z,1.98
2023-10-24T02:50:45.148Z,3.88
2023-10-24T02:53:12.104Z,3.20
2023-10-24T02:55:39.388Z,2.50
2023-10-24T02:58:06.358Z,2.03
2023-10-24T03:00:33.648Z,6.05
2023-10-24T03:03:02.310Z,2.88
2023-10-24T03:05:30.100Z,4.10
2023-10-24T03:07:57.076Z,2.55
2023-10-24T03:10:25.350Z,1.98
2023-10-24T03:12:52.392Z,6.65
2023-10-24T03:15:19.650Z,4.35
2023-10-24T03:17:46.817Z,6.53
2023-10-24T03:20:14.101Z,1.45
2023-10-24T03:22:41.447Z,2.72
2023-10-24T03:25:09.061Z,10.90
2023-10-24T03:27:36.057Z,2.20
2023-10-24T03:30:04.049Z,2.53
2023-10-24T03:32:32.323Z,3.35
2023-10-24T03:35:01.955Z,3.00
2023-10-24T03:37:29.094Z,2.85
2023-10-24T03:39:56.447Z,2.53
2023-10-24T03:42:23.937Z,2.10
2023-10-24T03:44:50.924Z,2.05
2023-10-24T03:47:18.091Z,3.45
2023-10-24T03:49:45.169Z,3.03
2023-10-24T03:52:12.128Z,2.50
2023-10-24T03:54:39.217Z,2.30
2023-10-24T03:57:06.361Z,2.20
2023-10-24T03:59:33.306Z,2.72
2023-10-24T04:02:00.297Z,2.35
2023-10-24T04:04:27.458Z,3.05
2023-10-24T04:06:54.469Z,3.30
2023-10-24T04:09:35.399Z,3.42
2023-10-24T04:12:06.080Z,1.92
2023-10-24T04:14:33.029Z,1.67
2023-10-24T04:17:00.081Z,5.07
2023-10-24T04:19:27.169Z,3.00
2023-10-24T04:21:54.382Z,2.15
2023-10-24T04:24:21.487Z,4.05
2023-10-24T04:26:48.466Z,2.55
2023-10-24T04:29:15.548Z,3.20
2023-10-24T04:31:42.729Z,2.90
2023-10-24T04:34:09.754Z,4.47
2023-10-24T04:36:36.798Z,3.30
2023-10-24T04:39:04.100Z,5.05
2023-10-24T04:41:31.445Z,3.53
2023-10-24T04:43:58.468Z,9.57
2023-10-24T04:46:25.729Z,4.57
2023-10-24T04:48:52.803Z,2.40
2023-10-24T04:51:19.808Z,5.88
2023-10-24T04:53:46.775Z,5.18
2023-10-24T04:56:13.763Z,3.25
2023-10-24T04:58:40.861Z,4.22
2023-10-24T05:01:08.118Z,3.85
2023-10-24T05:03:36.706Z,8.23
2023-10-24T05:06:04.222Z,3.47
2023-10-24T05:08:31.185Z,3.22
2023-10-24T05:10:58.535Z,3.97
2023-10-24T05:13:25.784Z,3.90
2023-10-24T05:15:52.813Z,4.03
2023-10-24T05:18:19.872Z,3.50
2023-10-24T05:20:47.848Z,4.03
2023-10-24T05:23:14.820Z,4.13
2023-10-24T05:25:44.946Z,3.08
2023-10-24T05:28:11.987Z,4.25
2023-10-24T05:30:40.509Z,6.28
2023-10-24T05:33:07.521Z,5.38
2023-10-24T05:35:35.057Z,3.10
2023-10-24T05:38:02.111Z,7.05
2023-10-24T05:40:29.154Z,3.85
2023-10-24T05:42:56.772Z,2.95
2023-10-24T05:45:25.287Z,4.68
2023-10-24T05:47:52.495Z,3.83
2023-10-24T05:50:20.399Z,4.38
2023-10-24T05:52:48.332Z,9.07
2023-10-24T05:55:15.433Z,4.05
2023-10-24T05:57:42.585Z,5.78
2023-10-24T06:00:10.993Z,5.82
2023-10-24T06:02:38.013Z,7.93
2023-10-24T06:05:05.582Z,8.38
2023-10-24T06:07:32.613Z,6.80
2023-10-24T06:09:59.589Z,3.10
2023-10-24T06:12:30.006Z,4.85
2023-10-24T06:14:56.983Z,4.45
2023-10-24T06:17:24.747Z,6.55
2023-10-24T06:19:53.127Z,2.67
2023-10-24T06:22:20.248Z,3.58
2023-10-24T06:24:47.231Z,3.78
2023-10-24T06:27:15.389Z,2.85
2023-10-24T06:29:42.529Z,3.58
2023-10-24T06:32:09.819Z,5.75
2023-10-24T06:34:36.968Z,4.97
2023-10-24T06:37:05.003Z,4.28
2023-10-24T06:39:34.436Z,5.00
2023-10-24T06:42:01.647Z,4.85
2023-10-24T06:44:29.622Z,3.85
2023-10-24T06:46:57.442Z,3.45
2023-10-24T06:49:24.771Z,4.03
2023-10-24T06:51:51.806Z,3.50
2023-10-24T06:54:18.840Z,2.97
2023-10-24T06:56:45.913Z,7.60
2023-10-24T06:59:12.899Z,9.52
2023-10-24T07:01:40.353Z,7.38
2023-10-24T07:04:07.759Z,3.28
2023-10-24T07:06:34.769Z,3.80
2023-10-24T07:09:01.789Z,3.88
2023-10-24T07:11:29.175Z,4.00
2023-10-24T07:13:56.247Z,4.43
2023-10-24T07:16:23.340Z,6.30
2023-10-24T07:18:50.377Z,8.27
2023-10-24T07:21:18.391Z,6.15
2023-10-24T07:23:45.430Z,6.85
2023-10-24T07:26:12.430Z,5.60
2023-10-24T07:28:39.493Z,8.18
2023-10-24T07:31:06.486Z,9.88
2023-10-24T07:33:33.554Z,4.50
2023-10-24T07:36:08.070Z,4.80
2023-10-24T07:38:35.384Z,17.77
2023-10-24T07:41:02.934Z,10.10
2023-10-24T07:43:29.989Z,10.88
2023-10-24T07:45:57.050Z,8.77
2023-10-24T07:48:25.722Z,4.75
2023-10-24T07:50:57.806Z,4.93
2023-10-24T07:53:26.799Z,3.20
2023-10-24T07:55:54.630Z,8.80
2023-10-24T07:58:22.216Z,5.60
2023-10-24T08:00:49.881Z,5.03
2023-10-24T08:03:17.805Z,8.75
2023-10-24T08:05:45.406Z,5.57
2023-10-24T08:08:12.507Z,13.95
2023-10-24T08:10:40.019Z,4.28
2023-10-24T08:13:07.024Z,9.27
2023-10-24T08:15:34.218Z,7.70
2023-10-24T08:18:01.416Z,4.85
2023-10-24T08:20:28.500Z,5.97
2023-10-24T08:22:56.261Z,7.13
2023-10-24T08:25:23.485Z,7.13
2023-10-24T08:27:50.565Z,4.40
2023-10-24T08:30:17.595Z,4.75
2023-10-24T08:32:44.606Z,6.43
2023-10-24T08:35:11.725Z,3.70
2023-10-24T08:37:38.827Z,7.30
2023-10-24T08:40:06.919Z,4.80
2023-10-24T08:42:34.521Z,5.03
2023-10-24T08:45:02.387Z,3.63
2023-10-24T08:47:31.299Z,5.63
2023-10-24T08:50:02.268Z,3.72
2023-10-24T08:52:32.127Z,4.25
2023-10-24T08:55:02.275Z,9.35
2023-10-24T08:57:32.205Z,11.25
2023-10-24T09:00:01.650Z,5.57
2023-10-24T09:02:29.565Z,4.97
2023-10-24T09:04:56.698Z,4.63
2023-10-24T09:07:23.845Z,4.50
2023-10-24T09:09:51.541Z,9.48
2023-10-24T09:12:18.651Z,5.38
2023-10-24T09:14:53.685Z,4.57
2023-10-24T09:17:25.486Z,12.40
2023-10-24T09:20:00.811Z,4.40
2023-10-24T09:22:33.317Z,6.95
2023-10-24T09:25:03.166Z,7.90
2023-10-24T09:27:30.215Z,7.60
2023-10-24T09:29:57.228Z,5.97
2023-10-24T09:32:24.315Z,6.72
2023-10-24T09:34:51.462Z,5.65
2023-10-24T09:37:18.505Z,9.82
2023-10-24T09:40:02.599Z,10.32
2023-10-24T09:42:35.125Z,6.57
2023-10-24T09:45:07.510Z,7.07
2023-10-24T09:47:35.320Z,5.72
2023-10-24T09:50:03.710Z,8.20
2023-10-24T09:52:31.471Z,5.82
2023-10-24T09:55:00.230Z,7.82
2023-10-24T09:57:28.971Z,7.18
2023-10-24T10:00:00.437Z,5.65
2023-10-24T10:02:28.906Z,9.00
2023-10-24T10:04:56.795Z,7.20
2023-10-24T10:07:27.360Z,5.72
2023-10-24T10:09:55.669Z,7.47
2023-10-24T10:12:23.270Z,5.05
2023-10-24T10:15:27.192Z,7.93
2023-10-24T10:18:22.639Z,5.40
2023-10-24T10:21:35.474Z,8.15
2023-10-24T10:24:31.161Z,12.93
2023-10-24T10:27:31.648Z,8.40
2023-10-24T10:30:23.755Z,12.48
2023-10-24T10:33:16.360Z,16.95
2023-10-24T10:36:03.514Z,14.85
2023-10-24T10:38:41.854Z,10.02
2023-10-24T10:41:28.357Z,8.30
2023-10-24T10:44:01.209Z,8.05
2023-10-24T10:49:02.005Z,4.63
2023-10-24T10:51:34.713Z,7.28
2023-10-24T10:54:46.490Z,5.88
2023-10-24T10:57:23.815Z,6.85
2023-10-24T10:59:59.724Z,11.40
2023-10-24T11:03:03.938Z,11.65
2023-10-24T11:05:36.846Z,6.55
2023-10-24T11:08:05.415Z,7.38
2023-10-24T11:10:55.144Z,7.40
2023-10-24T11:13:45.213Z,6.03
2023-10-24T11:16:29.962Z,6.63
2023-10-24T11:18:57.843Z,6.00
2023-10-24T11:21:25.141Z,10.85
2023-10-24T11:23:52.388Z,15.88
2023-10-24T11:26:19.451Z,13.23
2023-10-24T11:28:46.598Z,15.38
2023-10-24T11:31:24.841Z,27.60
2023-10-24T11:33:52.167Z,31.67
2023-10-24T11:36:19.659Z,88.95
2023-10-24T11:38:46.768Z,64.80
2023-10-24T11:41:13.761Z,37.25
2023-10-24T11:43:40.758Z,29.05
2023-10-24T11:46:07.841Z,25.10
2023-10-24T11:48:34.998Z,18.05
2023-10-24T11:51:04.917Z,26.88
2023-10-24T11:53:32.262Z,27.85
2023-10-24T11:55:59.875Z,12.88
2023-10-24T11:58:34.706Z,8.00
2023-10-24T12:01:03.443Z,5.43
2023-10-24T12:03:49.820Z,6.72
2023-10-24T12:06:19.618Z,4.35
2023-10-24T12:08:48.780Z,13.10
2023-10-24T12:11:15.945Z,12.50
2023-10-24T12:13:43.027Z,7.82
2023-10-24T12:16:10.432Z,11.93
2023-10-24T12:18:40.076Z,6.68
2023-10-24T12:21:09.342Z,10.75
2023-10-24T12:23:39.706Z,5.25
2023-10-24T12:26:06.982Z,8.40
2023-10-24T12:28:35.067Z,5.45
2023-10-24T12:31:02.090Z,3.40
2023-10-24T12:33:29.789Z,3.38
2023-10-24T12:36:01.287Z,2.90
2023-10-24T12:38:32.617Z,1.42
2023-10-24T12:40:59.664Z,1.83
2023-10-24T12:43:26.936Z,1.98
2023-10-24T12:45:54.066Z,2.22
2023-10-24T12:48:21.222Z,2.25
2023-10-24T12:50:48.659Z,2.05
2023-10-24T12:53:16.013Z,3.13
2023-10-24T12:55:43.219Z,2.20
2023-10-24T12:58:10.260Z,4.80
2023-10-24T13:00:37.416Z,10.75
2023-10-24T13:03:15.128Z,7.22
2023-10-24T13:05:48.002Z,25.30
2023-10-24T13:08:15.906Z,22.10
2023-10-24T13:10:43.229Z,14.55
2023-10-24T13:13:10.655Z,7.47
2023-10-24T13:15:37.749Z,8.00
2023-10-24T13:18:04.939Z,7.38
2023-10-24T13:20:32.068Z,5.85
2023-10-24T13:22:59.107Z,6.80
2023-10-24T13:25:26.105Z,4.28
2023-10-24T13:27:53.054Z,4.97
2023-10-24T13:30:33.494Z,3.40
2023-10-24T13:33:06.934Z,5.75
2023-10-24T13:38:03.821Z,2.30
2023-10-24T13:40:30.849Z,3.90
2023-10-24T13:42:57.950Z,2.58
2023-10-24T13:45:27.767Z,3.60
2023-10-24T13:47:55.973Z,2.15
2023-10-24T13:50:22.959Z,1.95
2023-10-24T13:52:50.060Z,0.98
2023-10-24T13:55:18.969Z,1.60
2023-10-24T13:57:48.150Z,1.05
2023-10-24T14:00:15.735Z,2.60
2023-10-24T14:02:42.872Z,5.28
2023-10-24T14:05:10.591Z,1.60
2023-10-24T14:07:37.630Z,1.27
2023-10-24T14:10:05.130Z,2.47
2023-10-24T14:12:32.105Z,48.95
2023-10-24T14:14:59.081Z,25.88
2023-10-24T14:17:26.036Z,9.00
2023-10-24T14:19:53.027Z,10.55
2023-10-24T14:22:20.074Z,3.75
2023-10-24T14:24:47.145Z,2.67
2023-10-24T14:27:14.522Z,11.48
2023-10-24T14:29:45.327Z,6.60
2023-10-24T14:32:12.398Z,3.60
2023-10-24T14:34:39.454Z,1.73
2023-10-24T14:37:06.488Z,1.85
2023-10-24T14:39:33.545Z,0.75
2023-10-24T14:42:01.371Z,1.70
2023-10-24T14:44:29.251Z,4.25
2023-10-24T14:46:56.319Z,10.90
2023-10-24T14:49:23.650Z,6.25
2023-10-24T14:51:50.799Z,23.17
2023-10-24T14:54:17.762Z,19.02
2023-10-24T14:56:44.733Z,17.27
2023-10-24T14:59:11.813Z,10.57
2023-10-24T15:01:38.834Z,11.02
2023-10-24T15:04:06.059Z,8.90
2023-10-24T15:06:35.192Z,6.70
2023-10-24T15:09:05.775Z,4.07
2023-10-24T15:11:32.832Z,4.18
2023-10-24T15:14:00.323Z,4.03
2023-10-24T15:16:27.414Z,4.53
2023-10-24T15:18:54.771Z,5.18
2023-10-24T15:21:21.759Z,7.22
2023-10-24T15:23:48.866Z,2.92
2023-10-24T15:26:16.241Z,4.13
2023-10-24T15:28:43.260Z,3.22
2023-10-24T15:31:10.349Z,2.58
2023-10-24T15:33:37.327Z,6.28
2023-10-24T15:36:04.696Z,3.03
2023-10-24T15:38:31.695Z,5.25
2023-10-24T15:40:58.703Z,5.22
2023-10-24T15:43:25.837Z,4.38
2023-10-24T15:46:08.066Z,4.53
2023-10-24T15:48:36.770Z,6.97
2023-10-24T15:51:05.716Z,4.22
2023-10-24T15:53:33.465Z,5.00
2023-10-24T15:56:01.331Z,3.45
2023-10-24T15:58:32.368Z,4.82
2023-10-24T16:00:59.924Z,3.03
2023-10-24T16:03:27.039Z,7.13
2023-10-24T16:05:54.186Z,45.75
2023-10-24T16:08:21.328Z,72.53
2023-10-24T16:10:48.715Z,38.05
2023-10-24T16:13:15.761Z,25.58
2023-10-24T16:15:43.021Z,8.05
2023-10-24T16:18:10.541Z,6.10
2023-10-24T16:20:37.612Z,7.63
2023-10-24T16:23:04.893Z,10.88
2023-10-24T16:25:33.103Z,10.75
2023-10-24T16:28:00.201Z,10.00
2023-10-24T16:30:27.786Z,6.97
2023-10-24T16:32:55.424Z,4.88
2023-10-24T16:35:22.619Z,6.72
2023-10-24T16:37:49.696Z,2.08
2023-10-24T16:40:16.834Z,1.58
2023-10-24T16:42:43.820Z,1.50
2023-10-24T16:45:10.971Z,0.68
2023-10-24T16:47:37.977Z,0.90
2023-10-24T16:50:06.334Z,1.17
2023-10-24T16:52:33.384Z,1.10
2023-10-24T16:55:00.334Z,1.17
2023-10-24T16:57:27.385Z,2.13
2023-10-24T16:59:54.414Z,3.17
2023-10-24T17:02:22.735Z,8.13
2023-10-24T17:04:50.058Z,7.35
2023-10-24T17:07:17.073Z,5.07
2023-10-24T17:09:44.205Z,3.35
2023-10-24T17:12:11.336Z,4.45
2023-10-24T17:14:38.866Z,2.50
2023-10-24T17:17:06.254Z,2.90
2023-10-24T17:19:36.110Z,6.78
2023-10-24T17:22:03.121Z,2.33
2023-10-24T17:24:30.693Z,2.85
2023-10-24T17:26:57.717Z,4.65
2023-10-24T17:29:25.834Z,3.35
2023-10-24T17:31:52.963Z,3.00
2023-10-24T17:34:20.035Z,2.92
2023-10-24T17:36:47.017Z,2.97
2023-10-24T17:39:14.027Z,3.80
2023-10-24T17:41:41.017Z,4.85
2023-10-24T17:44:08.018Z,7.40
2023-10-24T17:46:35.262Z,10.68
2023-10-24T17:49:02.284Z,6.50
2023-10-24T17:51:29.290Z,8.07
2023-10-24T17:53:56.508Z,16.80
2023-10-24T17:56:23.531Z,9.25
2023-10-24T17:58:50.661Z,7.70
2023-10-24T18:01:18.078Z,8.27
2023-10-24T18:03:45.114Z,6.30
2023-10-24T18:06:12.190Z,9.73
2023-10-24T18:08:41.658Z,16.92
2023-10-24T18:11:09.399Z,7.20
2023-10-24T18:13:36.599Z,7.40
2023-10-24T18:16:03.938Z,9.38
2023-10-24T18:18:33.679Z,8.23
2023-10-24T18:21:01.025Z,6.97
2023-10-24T18:23:28.056Z,7.05
2023-10-24T18:25:56.077Z,6.57
2023-10-24T18:28:23.218Z,6.03
2023-10-24T18:30:50.241Z,4.70
2023-10-24T18:33:17.204Z,5.47
2023-10-24T18:35:44.525Z,4.93
2023-10-24T18:38:11.571Z,6.82
2023-10-24T18:40:38.604Z,7.03
2023-10-24T18:43:05.802Z,7.70
2023-10-24T18:45:35.683Z,5.85
2023-10-24T18:48:02.771Z,4.65
2023-10-24T18:50:29.977Z,6.65
2023-10-24T18:52:58.765Z,5.78
2023-10-24T18:55:26.510Z,5.03
2023-10-24T18:57:53.760Z,4.20
2023-10-24T19:00:21.540Z,3.05
2023-10-24T19:05:21.429Z,0.82
2023-10-24T19:07:48.428Z,0.80
2023-10-24T19:10:16.490Z,0.60
2023-10-24T19:12:43.934Z,0.90
2023-10-24T19:15:12.461Z,0.80
2023-10-24T19:17:39.997Z,0.57
2023-10-24T19:20:08.570Z,3.15
2023-10-24T19:22:35.955Z,0.38
2023-10-24T19:25:04.805Z,0.40
2023-10-24T19:27:32.305Z,1.10
2023-10-24T19:29:59.689Z,1.35
2023-10-24T19:32:32.851Z,0.35
2023-10-24T19:35:00.546Z,0.47
2023-10-24T19:37:30.489Z,0.20
2023-10-24T19:39:57.955Z,0.82
2023-10-24T19:42:26.849Z,0.28
2023-10-24T19:44:54.177Z,1.45
2023-10-24T19:47:24.882Z,0.40
2023-10-24T19:49:53.749Z,0.60
2023-10-24T19:52:23.500Z,0.40
2023-10-24T19:54:52.129Z,0.40
2023-10-24T19:57:19.361Z,0.40
2023-10-24T19:59:46.766Z,0.90
2023-10-24T20:02:14.266Z,0.50
2023-10-24T20:04:48.325Z,0.40
2023-10-24T20:07:20.696Z,0.55
2023-10-24T20:11:04.102Z,0.43
2023-10-24T20:12:42.260Z,0.88
2023-10-24T20:15:12.665Z,0.70
2023-10-24T20:17:44.133Z,0.73
2023-10-24T20:20:13.683Z,0.82
2023-10-24T20:22:41.650Z,0.60
2023-10-24T20:25:09.717Z,3.60
2023-10-24T20:27:39.689Z,3.13
2023-10-24T20:30:08.811Z,1.48
2023-10-24T20:32:37.563Z,1.95
2023-10-24T20:35:06.843Z,0.82
2023-10-24T20:37:33.934Z,2.70
2023-10-24T20:40:01.012Z,0.70
2023-10-24T20:42:28.103Z,2.33
2023-10-24T20:44:56.677Z,5.20
2023-10-24T20:47:23.915Z,3.55
2023-10-24T20:49:51.005Z,2.20
2023-10-24T20:52:18.388Z,4.13
2023-10-24T20:54:45.801Z,3.15
2023-10-24T20:57:14.610Z,1.75
2023-10-24T20:59:42.053Z,1.80
2023-10-24T21:02:09.292Z,2.92
2023-10-24T21:04:38.193Z,2.88
2023-10-24T21:07:06.293Z,7.18
2023-10-24T21:09:33.560Z,5.63
2023-10-24T21:12:01.341Z,2.85
2023-10-24T21:14:28.413Z,1.02
2023-10-24T21:16:55.490Z,0.50
2023-10-24T21:19:22.845Z,0.50
2023-10-24T21:21:50.281Z,0.40
2023-10-24T21:24:17.267Z,0.57
2023-10-24T21:26:45.538Z,0.82
2023-10-24T21:29:12.656Z,0.70
2023-10-24T21:31:40.635Z,0.57
2023-10-24T21:34:08.875Z,7.63
2023-10-24T21:36:35.990Z,1.33
2023-10-24T21:39:05.058Z,2.47
2023-10-24T21:41:32.302Z,1.88
2023-10-24T21:43:59.345Z,2.17
2023-10-24T21:46:26.438Z,0.98
2023-10-24T21:48:53.599Z,1.63
2023-10-24T21:51:21.785Z,5.97
2023-10-24T21:53:51.327Z,1.35
2023-10-24T21:56:20.269Z,2.03
2023-10-24T21:58:47.984Z,1.23
2023-10-24T22:01:19.526Z,1.13
2023-10-24T22:03:47.420Z,1.58
2023-10-24T22:06:15.132Z,2.63
2023-10-24T22:08:42.144Z,0.63
2023-10-24T22:11:09.154Z,0.88
2023-10-24T22:13:36.244Z,0.73
2023-10-24T22:16:03.558Z,0.75
2023-10-24T22:18:30.776Z,0.82
2023-10-24T22:20:58.151Z,0.80
2023-10-24T22:23:25.262Z,0.70
2023-10-24T22:25:55.794Z,0.80
2023-10-24T22:28:22.894Z,1.40
2023-10-24T22:30:49.964Z,2.13
2023-10-24T22:33:17.113Z,0.95
2023-10-24T22:35:44.157Z,1.40
2023-10-24T22:38:11.226Z,1.48
2023-10-24T22:40:38.304Z,0.40
2023-10-24T22:43:05.357Z,3.05
2023-10-24T22:45:32.538Z,0.30
2023-10-24T22:47:59.779Z,0.55
2023-10-24T22:50:26.998Z,0.75
2023-10-24T22:52:54.097Z,0.30
2023-10-24T22:55:21.220Z,2.63
2023-10-24T22:57:48.439Z,0.47
2023-10-24T23:00:16.167Z,0.40
2023-10-24T23:02:45.950Z,2.65
2023-10-24T23:05:13.863Z,3.80
2023-10-24T23:07:40.852Z,1.65
2023-10-24T23:10:09.272Z,0.77
2023-10-24T23:12:37.000Z,1.23
2023-10-24T23:15:04.925Z,1.42
2023-10-24T23:17:32.448Z,5.85
2023-10-24T23:19:59.761Z,0.93
2023-10-24T23:22:26.846Z,0.77
2023-10-24T23:24:55.333Z,0.50
2023-10-24T23:27:23.108Z,3.45
2023-10-24T23:29:50.376Z,0.68
2023-10-24T23:32:17.623Z,1.98
2023-10-24T23:34:44.626Z,1.85
2023-10-24T23:37:11.718Z,3.97
2023-10-24T23:39:38.858Z,2.08
2023-10-24T23:42:06.098Z,5.05
2023-10-24T23:44:33.108Z,1.83
2023-10-24T23:47:00.454Z,1.95
2023-10-24T23:49:27.574Z,1.58
2023-10-24T23:51:54.616Z,2.25
2023-10-24T23:54:21.615Z,2.75
2023-10-24T23:56:48.612Z,2.20
2023-10-24T23:59:15.569Z,1.85
